Time;durP1;ratioP1;P1;durP2;ratioP2;P2;SDS_P1;SDS_P2;PMS_P1;PMS_P2;Temp;Humidity;BMP_temperature;BMP_pressure;BME280_temperature;BME280_humidity;BME280_pressure;Samples;Min_cycle;Max_cycle;Signal;HPM_P1;HPM_P2
2024/01/22 00:00:23;;;;;;;8.27;3.97;;;;;;;;;;5071798;28;20082;-85
2024/01/22 00:02:49;;;;;;;10.50;3.85;;;;;;;;;;5073523;28;20048;-86
2024/01/22 00:05:15;;;;;;;10.43;3.65;;;;;;;;;;5073183;28;20075;-87
2024/01/22 00:07:41;;;;;;;8.95;3.95;;;;;;;;;;5072741;28;20039;-87
2024/01/22 00:10:11;;;;;;;10.30;3.75;;;;;;;;;;5073023;28;20020;-86
2024/01/22 00:12:37;;;;;;;7.47;3.90;;;;;;;;;;5072407;28;20031;-86
2024/01/22 00:15:03;;;;;;;6.53;3.75;;;;;;;;;;5072832;28;20047;-86
2024/01/22 00:17:29;;;;;;;10.73;3.90;;;;;;;;;;5071267;28;20032;-85
2024/01/22 00:19:55;;;;;;;9.02;3.40;;;;;;;;;;5072716;28;20112;-85
2024/01/22 00:22:21;;;;;;;5.53;2.72;;;;;;;;;;5072317;28;20048;-85
2024/01/22 00:24:47;;;;;;;8.55;3.47;;;;;;;;;;5072403;28;20504;-86
2024/01/22 00:27:13;;;;;;;8.18;4.18;;;;;;;;;;5072546;28;20460;-84
2024/01/22 00:29:39;;;;;;;9.30;3.65;;;;;;;;;;5073244;28;20016;-86
2024/01/22 00:32:05;;;;;;;9.38;4.25;;;;;;;;;;5073051;28;20035;-86
2024/01/22 00:34:31;;;;;;;7.28;3.88;;;;;;;;;;5072224;28;20037;-85
2024/01/22 00:36:57;;;;;;;9.35;4.55;;;;;;;;;;5071885;28;20043;-85
2024/01/22 00:39:23;;;;;;;7.07;3.10;;;;;;;;;;5071372;28;20491;-85
2024/01/22 00:41:50;;;;;;;6.88;3.55;;;;;;;;;;5071755;28;20024;-85
2024/01/22 00:44:16;;;;;;;11.77;3.50;;;;;;;;;;5071456;28;20025;-83
2024/01/22 00:46:42;;;;;;;9.88;4.35;;;;;;;;;;5071951;28;20357;-85
2024/01/22 00:49:08;;;;;;;6.80;3.45;;;;;;;;;;5072311;28;20021;-84
2024/01/22 00:51:34;;;;;;;9.70;3.85;;;;;;;;;;5072269;28;20071;-83
2024/01/22 00:54:00;;;;;;;7.35;4.05;;;;;;;;;;5071645;28;20614;-86
2024/01/22 00:56:26;;;;;;;8.05;3.60;;;;;;;;;;5071788;28;20024;-86
2024/01/22 00:58:52;;;;;;;7.80;3.70;;;;;;;;;;5071597;28;20391;-84
2024/01/22 01:01:18;;;;;;;7.75;3.63;;;;;;;;;;5071270;28;20047;-84
2024/01/22 01:03:44;;;;;;;6.97;3.78;;;;;;;;;;5072146;28;20032;-85
2024/01/22 01:06:10;;;;;;;8.20;3.83;;;;;;;;;;5072328;28;20023;-85
2024/01/22 01:08:36;;;;;;;11.23;3.45;;;;;;;;;;5071696;28;20021;-84
2024/01/22 01:11:02;;;;;;;6.60;2.85;;;;;;;;;;5071574;28;20059;-84
2024/01/22 01:13:28;;;;;;;8.32;3.55;;;;;;;;;;5071338;28;20031;-85
2024/01/22 01:15:54;;;;;;;7.20;3.30;;;;;;;;;;5071738;28;20029;-82
2024/01/22 01:18:20;;;;;;;7.47;3.63;;;;;;;;;;5072923;28;20487;-85
2024/01/22 01:20:46;;;;;;;6.35;3.10;;;;;;;;;;5088137;28;20017;-86
2024/01/22 01:23:12;;;;;;;5.78;3.40;;;;;;;;;;5097220;28;20005;-85
2024/01/22 01:25:38;;;;;;;6.85;3.20;;;;;;;;;;5095628;28;20036;-84
2024/01/22 01:28:04;;;;;;;7.82;3.35;;;;;;;;;;5090693;28;20138;-85
2024/01/22 01:30:30;;;;;;;7.35;3.03;;;;;;;;;;5082945;28;20101;-85
2024/01/22 01:32:56;;;;;;;7.07;3.30;;;;;;;;;;5075269;28;20063;-85
2024/01/22 01:35:22;;;;;;;8.32;3.78;;;;;;;;;;5074902;28;20052;-85
2024/01/22 01:37:48;;;;;;;9.43;3.10;;;;;;;;;;5074877;28;20027;-85
2024/01/22 01:40:14;;;;;;;7.68;3.33;;;;;;;;;;5075796;28;20020;-85
2024/01/22 01:42:44;;;;;;;10.88;3.55;;;;;;;;;;5074928;28;20056;-83
2024/01/22 01:45:13;;;;;;;8.10;3.47;;;;;;;;;;5074782;28;20078;-84
2024/01/22 01:47:40;;;;;;;6.43;3.10;;;;;;;;;;5075079;28;20052;-85
2024/01/22 01:50:06;;;;;;;8.38;3.55;;;;;;;;;;5075707;28;20025;-85
2024/01/22 01:52:32;;;;;;;7.97;3.03;;;;;;;;;;5075341;28;20024;-85
2024/01/22 01:55:00;;;;;;;7.38;3.10;;;;;;;;;;5074033;28;20089;-81
2024/01/22 01:57:26;;;;;;;6.82;2.95;;;;;;;;;;5074052;28;20464;-82
2024/01/22 01:59:52;;;;;;;6.00;2.80;;;;;;;;;;5074077;28;20124;-81
2024/01/22 02:02:20;;;;;;;11.05;4.03;;;;;;;;;;5074256;28;20391;-82
2024/01/22 02:04:46;;;;;;;8.75;2.65;;;;;;;;;;5074266;28;20032;-84
2024/01/22 02:07:12;;;;;;;6.70;2.97;;;;;;;;;;5073710;28;20029;-85
2024/01/22 02:09:53;;;;;;;7.93;2.83;;;;;;;;;;5073567;28;20070;-86
2024/01/22 02:12:20;;;;;;;5.90;2.80;;;;;;;;;;5073753;28;20025;-86
2024/01/22 02:14:47;;;;;;;5.68;3.15;;;;;;;;;;5073907;28;20119;-86
2024/01/22 02:17:16;;;;;;;6.57;2.85;;;;;;;;;;5073553;28;20016;-86
2024/01/22 02:19:42;;;;;;;5.43;2.80;;;;;;;;;;5073568;28;20032;-86
2024/01/22 02:22:08;;;;;;;7.80;3.75;;;;;;;;;;5073755;28;20029;-84
2024/01/22 02:24:34;;;;;;;9.32;2.60;;;;;;;;;;5073266;28;20029;-84
2024/01/22 02:27:01;;;;;;;5.95;2.20;;;;;;;;;;5073336;28;20071;-86
2024/01/22 02:29:27;;;;;;;4.10;2.10;;;;;;;;;;5073257;28;20457;-84
2024/01/22 02:31:53;;;;;;;5.85;2.72;;;;;;;;;;5073730;28;20032;-86
2024/01/22 02:34:19;;;;;;;9.45;2.78;;;;;;;;;;5074971;28;20020;-86
2024/01/22 02:36:45;;;;;;;8.00;2.92;;;;;;;;;;5073699;28;20078;-86
2024/01/22 02:39:12;;;;;;;4.85;2.17;;;;;;;;;;5073467;28;20028;-86
2024/01/22 02:41:38;;;;;;;7.63;2.50;;;;;;;;;;5072314;28;20108;-86
2024/01/22 02:44:04;;;;;;;6.25;2.55;;;;;;;;;;5073476;28;20056;-86
2024/01/22 02:46:31;;;;;;;7.22;3.15;;;;;;;;;;5073380;28;20282;-87
2024/01/22 02:48:58;;;;;;;8.18;3.30;;;;;;;;;;5073351;28;20412;-87
2024/01/22 02:51:24;;;;;;;4.70;1.90;;;;;;;;;;5072930;28;20518;-86
2024/01/22 02:53:50;;;;;;;5.85;3.00;;;;;;;;;;5072944;28;20028;-84
2024/01/22 02:56:20;;;;;;;7.82;2.67;;;;;;;;;;5072813;28;20037;-84
2024/01/22 02:58:46;;;;;;;7.43;2.90;;;;;;;;;;5072721;28;20021;-82
2024/01/22 03:01:12;;;;;;;7.03;2.15;;;;;;;;;;5072829;28;20072;-82
2024/01/22 03:03:40;;;;;;;4.65;2.15;;;;;;;;;;5073035;28;20028;-86
2024/01/22 03:06:06;;;;;;;7.30;2.70;;;;;;;;;;5073812;28;20107;-82
2024/01/22 03:08:32;;;;;;;3.55;1.90;;;;;;;;;;5073700;28;20029;-84
2024/01/22 03:10:58;;;;;;;7.90;2.72;;;;;;;;;;5072869;28;20032;-83
2024/01/22 03:13:24;;;;;;;5.43;2.35;;;;;;;;;;5074408;28;20017;-85
2024/01/22 03:15:51;;;;;;;5.55;1.85;;;;;;;;;;5072695;28;20492;-85
2024/01/22 03:18:17;;;;;;;6.95;2.45;;;;;;;;;;5073986;28;20024;-85
2024/01/22 03:20:43;;;;;;;5.82;2.40;;;;;;;;;;5072382;28;20388;-85
2024/01/22 03:23:08;;;;;;;4.13;2.42;;;;;;;;;;5072595;28;20031;-86
2024/01/22 03:25:35;;;;;;;7.90;2.95;;;;;;;;;;5072333;28;20024;-86
2024/01/22 03:28:00;;;;;;;5.07;2.35;;;;;;;;;;5072490;28;20035;-85
2024/01/22 03:30:27;;;;;;;4.63;2.30;;;;;;;;;;5072242;28;20025;-85
2024/01/22 03:32:53;;;;;;;4.97;1.85;;;;;;;;;;5072834;28;20077;-87
2024/01/22 03:35:20;;;;;;;3.58;2.38;;;;;;;;;;5072683;28;20066;-85
2024/01/22 03:37:46;;;;;;;4.88;2.00;;;;;;;;;;5073834;28;20017;-86
2024/01/22 03:40:12;;;;;;;6.20;2.67;;;;;;;;;;5075551;28;20096;-86
2024/01/22 03:42:38;;;;;;;6.38;2.17;;;;;;;;;;5083655;28;20043;-85
2024/01/22 03:45:04;;;;;;;4.60;2.50;;;;;;;;;;5097524;28;20068;-85
2024/01/22 03:47:30;;;;;;;5.25;2.17;;;;;;;;;;5097199;28;20079;-86
2024/01/22 03:49:57;;;;;;;4.90;1.60;;;;;;;;;;5091717;28;20476;-86
2024/01/22 03:52:23;;;;;;;3.67;1.80;;;;;;;;;;5082510;28;20028;-88
2024/01/22 03:54:48;;;;;;;6.22;2.70;;;;;;;;;;5072708;28;20036;-89
2024/01/22 03:57:15;;;;;;;6.78;2.55;;;;;;;;;;5072700;28;20029;-88
2024/01/22 03:59:42;;;;;;;4.22;2.15;;;;;;;;;;5073474;28;20452;-89
2024/01/22 04:02:08;;;;;;;6.57;2.63;;;;;;;;;;5071960;28;20045;-87
2024/01/22 04:04:34;;;;;;;6.35;2.70;;;;;;;;;;5071414;28;20072;-83
2024/01/22 04:07:00;;;;;;;5.82;2.83;;;;;;;;;;5071508;28;20025;-82
2024/01/22 04:09:26;;;;;;;4.65;2.13;;;;;;;;;;5071427;28;20048;-83
2024/01/22 04:11:52;;;;;;;6.25;2.40;;;;;;;;;;5071297;28;20417;-85
2024/01/22 04:14:18;;;;;;;4.10;1.98;;;;;;;;;;5071561;28;20122;-84
2024/01/22 04:16:44;;;;;;;6.03;2.92;;;;;;;;;;5072525;28;20100;-83
2024/01/22 04:19:10;;;;;;;6.13;2.03;;;;;;;;;;5071570;28;20094;-84
2024/01/22 04:21:43;;;;;;;5.72;2.95;;;;;;;;;;5071380;28;20123;-84
2024/01/22 04:24:09;;;;;;;6.13;2.20;;;;;;;;;;5071488;28;20029;-85
2024/01/22 04:26:35;;;;;;;4.82;1.92;;;;;;;;;;5071445;28;20013;-86
2024/01/22 04:29:01;;;;;;;3.95;2.03;;;;;;;;;;5071667;28;20021;-86
2024/01/22 04:31:27;;;;;;;5.90;2.17;;;;;;;;;;5071672;28;20468;-86
2024/01/22 04:33:54;;;;;;;5.18;2.08;;;;;;;;;;5071398;28;20035;-86
2024/01/22 04:36:20;;;;;;;5.10;1.95;;;;;;;;;;5071764;28;20070;-87
2024/01/22 04:38:46;;;;;;;5.05;2.15;;;;;;;;;;5071247;28;20025;-87
2024/01/22 04:41:12;;;;;;;4.60;1.90;;;;;;;;;;5072595;28;20468;-87
2024/01/22 04:43:38;;;;;;;4.13;2.28;;;;;;;;;;5071483;28;20123;-87
2024/01/22 04:46:04;;;;;;;4.10;1.90;;;;;;;;;;5071977;28;20123;-86
2024/01/22 04:48:30;;;;;;;2.80;1.45;;;;;;;;;;5072609;28;20021;-86
2024/01/22 04:50:56;;;;;;;2.33;1.48;;;;;;;;;;5072745;28;20024;-86
2024/01/22 04:53:22;;;;;;;4.80;1.85;;;;;;;;;;5072896;28;20021;-86
2024/01/22 04:55:48;;;;;;;2.60;1.50;;;;;;;;;;5071744;28;20150;-86
2024/01/22 04:58:14;;;;;;;6.65;2.28;;;;;;;;;;5078583;28;20039;-84
2024/01/22 05:00:40;;;;;;;2.13;1.50;;;;;;;;;;5078789;28;20095;-88
2024/01/22 05:03:06;;;;;;;3.88;1.80;;;;;;;;;;5078968;28;20017;-85
2024/01/22 05:05:34;;;;;;;6.47;2.42;;;;;;;;;;5076896;28;20037;-86
2024/01/22 05:08:00;;;;;;;5.93;2.00;;;;;;;;;;5075621;28;20021;-86
2024/01/22 05:10:26;;;;;;;9.95;2.05;;;;;;;;;;5076767;28;20029;-85
2024/01/22 05:12:52;;;;;;;6.30;2.28;;;;;;;;;;5074730;28;20025;-84
2024/01/22 05:15:18;;;;;;;5.25;1.73;;;;;;;;;;5076057;28;20024;-85
2024/01/22 05:17:44;;;;;;;5.82;1.65;;;;;;;;;;5074959;28;20029;-84
2024/01/22 05:20:11;;;;;;;4.20;1.67;;;;;;;;;;5074855;28;20025;-85
2024/01/22 05:22:38;;;;;;;3.53;1.95;;;;;;;;;;5074519;28;20029;-85
2024/01/22 05:25:04;;;;;;;4.63;2.08;;;;;;;;;;5074436;28;20103;-84
2024/01/22 05:27:30;;;;;;;5.13;2.00;;;;;;;;;;5074519;28;20023;-85
2024/01/22 05:29:56;;;;;;;4.13;1.58;;;;;;;;;;5074725;28;20040;-87
2024/01/22 05:32:22;;;;;;;4.00;1.25;;;;;;;;;;5074458;28;20040;-85
2024/01/22 05:34:48;;;;;;;2.92;1.30;;;;;;;;;;5075782;28;20017;-86
2024/01/22 05:37:14;;;;;;;3.50;1.45;;;;;;;;;;5074876;28;20066;-86
2024/01/22 05:39:40;;;;;;;2.95;1.40;;;;;;;;;;5074416;28;20426;-85
2024/01/22 05:42:06;;;;;;;4.95;1.58;;;;;;;;;;5074504;28;20025;-85
2024/01/22 05:44:32;;;;;;;4.80;1.70;;;;;;;;;;5074605;28;20068;-85
2024/01/22 05:46:58;;;;;;;4.65;1.73;;;;;;;;;;5076055;28;20055;-85
2024/01/22 05:49:24;;;;;;;3.13;1.20;;;;;;;;;;5074695;28;20456;-86
2024/01/22 05:51:50;;;;;;;5.65;1.30;;;;;;;;;;5075540;28;20108;-86
2024/01/22 05:54:16;;;;;;;3.45;1.90;;;;;;;;;;5079206;28;20047;-84
2024/01/22 05:56:42;;;;;;;4.05;1.48;;;;;;;;;;5096860;28;20044;-85
2024/01/22 05:59:08;;;;;;;3.65;1.35;;;;;;;;;;5099099;28;20078;-86
2024/01/22 06:01:34;;;;;;;5.60;1.55;;;;;;;;;;5097983;28;20036;-85
2024/01/22 06:04:00;;;;;;;3.50;1.38;;;;;;;;;;5078699;28;20025;-85
2024/01/22 06:06:26;;;;;;;5.30;0.95;;;;;;;;;;5074824;28;20029;-84
2024/01/22 06:08:52;;;;;;;4.97;1.30;;;;;;;;;;5073727;28;20077;-85
2024/01/22 06:11:19;;;;;;;5.28;1.20;;;;;;;;;;5074075;28;20028;-86
2024/01/22 06:13:45;;;;;;;4.13;1.10;;;;;;;;;;5073948;28;20527;-85
2024/01/22 06:16:15;;;;;;;2.53;1.13;;;;;;;;;;5072702;28;20020;-86
2024/01/22 06:18:45;;;;;;;3.97;1.55;;;;;;;;;;5073712;28;20097;-85
2024/01/22 06:21:13;;;;;;;4.40;1.63;;;;;;;;;;5073843;28;20036;-86
2024/01/22 06:23:39;;;;;;;6.68;1.33;;;;;;;;;;5073491;28;20025;-85
2024/01/22 06:26:05;;;;;;;4.90;1.00;;;;;;;;;;5073757;28;20041;-85
2024/01/22 06:28:31;;;;;;;6.88;1.10;;;;;;;;;;5073543;28;20078;-84
2024/01/22 06:30:58;;;;;;;6.40;1.20;;;;;;;;;;5074585;28;20025;-85
2024/01/22 06:33:24;;;;;;;5.07;0.90;;;;;;;;;;5073420;28;20028;-87
2024/01/22 06:35:50;;;;;;;5.90;1.83;;;;;;;;;;5073267;28;20050;-84
2024/01/22 06:38:17;;;;;;;4.57;1.88;;;;;;;;;;5073146;28;20468;-85
2024/01/22 06:40:44;;;;;;;3.58;0.88;;;;;;;;;;5073244;28;20028;-86
2024/01/22 06:43:10;;;;;;;4.65;1.52;;;;;;;;;;5073854;28;20024;-87
2024/01/22 06:45:36;;;;;;;4.10;1.05;;;;;;;;;;5073964;28;20029;-83
2024/01/22 06:48:03;;;;;;;6.85;2.03;;;;;;;;;;5074611;28;20013;-81
2024/01/22 06:50:29;;;;;;;2.58;0.98;;;;;;;;;;5077029;28;20112;-86
2024/01/22 06:52:55;;;;;;;5.00;1.50;;;;;;;;;;5079963;28;20020;-82
2024/01/22 06:55:21;;;;;;;4.00;1.08;;;;;;;;;;5073227;28;20487;-79
2024/01/22 06:57:47;;;;;;;5.03;1.35;;;;;;;;;;5073548;28;20415;-81
2024/01/22 07:00:15;;;;;;;3.20;1.10;;;;;;;;;;5074011;28;20486;-82
2024/01/22 07:02:43;;;;;;;7.45;1.30;;;;;;;;;;5072624;28;20087;-83
2024/01/22 07:05:10;;;;;;;4.75;1.05;;;;;;;;;;5072747;28;20128;-82
2024/01/22 07:07:37;;;;;;;6.95;1.23;;;;;;;;;;5072556;28;20173;-82
2024/01/22 07:10:05;;;;;;;4.85;1.17;;;;;;;;;;5072270;28;20457;-83
2024/01/22 07:12:31;;;;;;;5.65;1.27;;;;;;;;;;5072426;28;20048;-82
2024/01/22 07:14:57;;;;;;;2.42;0.80;;;;;;;;;;5073319;28;20487;-80
2024/01/22 07:17:23;;;;;;;5.53;1.40;;;;;;;;;;5073769;28;20104;-83
2024/01/22 07:19:49;;;;;;;4.55;1.40;;;;;;;;;;5072197;28;20024;-81
2024/01/22 07:22:17;;;;;;;1.92;0.90;;;;;;;;;;5072333;28;20039;-81
2024/01/22 07:24:43;;;;;;;4.35;1.10;;;;;;;;;;5073569;28;20118;-81
2024/01/22 07:27:09;;;;;;;7.95;1.33;;;;;;;;;;5071932;28;20392;-81
2024/01/22 07:29:35;;;;;;;5.10;1.45;;;;;;;;;;5073517;28;20016;-80
2024/01/22 07:32:02;;;;;;;3.88;1.40;;;;;;;;;;5072939;28;20031;-82
2024/01/22 07:34:28;;;;;;;7.72;1.65;;;;;;;;;;5073493;28;20107;-84
2024/01/22 07:36:54;;;;;;;9.02;1.67;;;;;;;;;;5072025;28;20388;-82
2024/01/22 07:39:20;;;;;;;13.60;2.15;;;;;;;;;;5073679;28;20020;-83
2024/01/22 07:41:46;;;;;;;6.22;1.75;;;;;;;;;;5071818;28;20025;-83
2024/01/22 07:44:12;;;;;;;10.68;2.58;;;;;;;;;;5072069;28;20125;-83
2024/01/22 07:46:38;;;;;;;8.75;1.85;;;;;;;;;;5072145;28;20042;-83
2024/01/22 07:49:04;;;;;;;13.02;2.42;;;;;;;;;;5071994;28;20423;-83
2024/01/22 07:51:30;;;;;;;13.25;2.00;;;;;;;;;;5072511;28;20028;-83
2024/01/22 07:53:56;;;;;;;7.32;1.70;;;;;;;;;;5071665;28;20611;-83
2024/01/22 07:56:23;;;;;;;12.45;2.13;;;;;;;;;;5071697;28;20150;-82
2024/01/22 07:58:49;;;;;;;7.70;2.28;;;;;;;;;;5071711;28;20159;-82
2024/01/22 08:01:15;;;;;;;13.73;2.63;;;;;;;;;;5071528;28;20090;-83
2024/01/22 08:03:41;;;;;;;9.65;2.20;;;;;;;;;;5072324;28;20406;-84
2024/01/22 08:06:07;;;;;;;8.05;1.38;;;;;;;;;;5073728;28;20032;-83
2024/01/22 08:08:35;;;;;;;8.15;1.60;;;;;;;;;;5083249;28;20058;-81
2024/01/22 08:11:01;;;;;;;7.85;2.05;;;;;;;;;;5086421;28;20028;-81
2024/01/22 08:13:27;;;;;;;8.93;1.48;;;;;;;;;;5086923;28;20028;-80
2024/01/22 08:15:53;;;;;;;12.32;2.70;;;;;;;;;;5075218;28;20534;-80
2024/01/22 08:18:19;;;;;;;10.00;2.03;;;;;;;;;;5071317;28;20353;-81
2024/01/22 08:20:45;;;;;;;11.45;1.88;;;;;;;;;;5070808;28;20027;-83
2024/01/22 08:23:11;;;;;;;12.23;2.95;;;;;;;;;;5071149;28;20078;-82
2024/01/22 08:25:37;;;;;;;12.65;2.08;;;;;;;;;;5070960;28;20037;-85
2024/01/22 08:28:03;;;;;;;13.02;2.38;;;;;;;;;;5071302;28;20622;-83
2024/01/22 08:30:29;;;;;;;9.68;2.70;;;;;;;;;;5071141;28;20464;-84
2024/01/22 08:32:56;;;;;;;10.45;2.20;;;;;;;;;;5071179;28;20028;-83
2024/01/22 08:35:22;;;;;;;8.65;1.88;;;;;;;;;;5072549;28;20028;-83
2024/01/22 08:37:54;;;;;;;7.72;2.20;;;;;;;;;;5070904;28;20028;-82
2024/01/22 08:40:21;;;;;;;12.65;3.13;;;;;;;;;;5071970;28;20023;-82
2024/01/22 08:42:51;;;;;;;8.45;2.22;;;;;;;;;;5071146;28;20017;-82
2024/01/22 08:45:17;;;;;;;6.07;1.42;;;;;;;;;;5071057;28;20036;-82
2024/01/22 08:47:45;;;;;;;10.02;2.42;;;;;;;;;;5072138;28;20033;-82
2024/01/22 08:50:15;;;;;;;9.45;2.63;;;;;;;;;;5070786;28;20047;-81
2024/01/22 08:52:41;;;;;;;11.93;2.35;;;;;;;;;;5072056;28;20380;-81
2024/01/22 08:55:07;;;;;;;14.68;2.75;;;;;;;;;;5070431;28;20027;-74
2024/01/22 08:57:33;;;;;;;10.85;2.38;;;;;;;;;;5070794;28;20365;-81
2024/01/22 08:59:59;;;;;;;14.38;2.75;;;;;;;;;;5070321;28;20116;-80
2024/01/22 09:02:28;;;;;;;12.00;2.92;;;;;;;;;;5071641;28;20131;-80
2024/01/22 09:04:55;;;;;;;8.40;2.30;;;;;;;;;;5070537;28;20032;-78
2024/01/22 09:07:21;;;;;;;10.30;2.50;;;;;;;;;;5070842;28;20052;-79
2024/01/22 09:09:47;;;;;;;11.20;2.58;;;;;;;;;;5070525;28;20082;-78
2024/01/22 09:12:13;;;;;;;13.45;3.08;;;;;;;;;;5072304;28;20021;-77
2024/01/22 09:14:38;;;;;;;14.27;3.60;;;;;;;;;;5071931;28;20028;-77
2024/01/22 09:17:05;;;;;;;25.75;4.25;;;;;;;;;;5072079;28;20039;-79
2024/01/22 09:19:31;;;;;;;18.02;4.82;;;;;;;;;;5071973;28;20025;-80
2024/01/22 09:21:57;;;;;;;32.00;5.30;;;;;;;;;;5070441;28;20380;-78
2024/01/22 09:24:23;;;;;;;13.80;3.53;;;;;;;;;;5071725;28;20217;-77
2024/01/22 09:26:49;;;;;;;16.45;3.20;;;;;;;;;;5070360;28;20049;-76
2024/01/22 09:29:15;;;;;;;19.67;3.63;;;;;;;;;;5070635;28;20553;-76
2024/01/22 09:31:41;;;;;;;11.13;3.00;;;;;;;;;;5071780;28;20099;-76
2024/01/22 09:34:07;;;;;;;14.85;3.20;;;;;;;;;;5071687;28;20559;-80
2024/01/22 09:36:33;;;;;;;21.35;3.88;;;;;;;;;;5070257;28;20024;-78
2024/01/22 09:38:59;;;;;;;12.32;3.15;;;;;;;;;;5070161;28;20419;-82
2024/01/22 09:41:25;;;;;;;15.80;2.75;;;;;;;;;;5070199;28;20016;-76
2024/01/22 09:43:52;;;;;;;14.13;3.80;;;;;;;;;;5071545;28;20116;-77
2024/01/22 09:46:18;;;;;;;12.27;2.85;;;;;;;;;;5071719;28;20033;-79
2024/01/22 09:48:45;;;;;;;14.00;3.25;;;;;;;;;;5070436;28;20021;-80
2024/01/22 09:51:11;;;;;;;18.73;2.67;;;;;;;;;;5072481;28;20017;-80
2024/01/22 09:53:39;;;;;;;12.55;3.28;;;;;;;;;;5075200;28;20460;-80
2024/01/22 09:56:06;;;;;;;14.60;2.53;;;;;;;;;;5073571;28;20029;-79
2024/01/22 09:58:35;;;;;;;16.08;3.60;;;;;;;;;;5073891;28;20048;-79
2024/01/22 10:01:02;;;;;;;14.40;2.90;;;;;;;;;;5073397;28;20401;-80
2024/01/22 10:03:32;;;;;;;11.43;2.50;;;;;;;;;;5075380;28;20021;-79
2024/01/22 10:06:00;;;;;;;18.55;3.67;;;;;;;;;;5073504;28;20028;-80
2024/01/22 10:08:26;;;;;;;12.88;3.03;;;;;;;;;;5075197;28;20409;-80
2024/01/22 10:10:52;;;;;;;18.90;2.55;;;;;;;;;;5073524;28;20028;-80
2024/01/22 10:13:18;;;;;;;15.93;3.00;;;;;;;;;;5074624;28;20370;-80
2024/01/22 10:15:44;;;;;;;17.63;3.45;;;;;;;;;;5073353;28;20039;-81
2024/01/22 10:18:15;;;;;;;8.77;2.97;;;;;;;;;;5075149;28;20021;-79
2024/01/22 10:20:42;;;;;;;13.02;3.25;;;;;;;;;;5075127;28;20020;-79
2024/01/22 10:23:09;;;;;;;14.18;2.33;;;;;;;;;;5079674;28;20020;-78
2024/01/22 10:25:35;;;;;;;16.08;3.35;;;;;;;;;;5078312;28;20086;-78
2024/01/22 10:28:16;;;;;;;15.07;3.05;;;;;;;;;;5069613;28;20377;-77
2024/01/22 10:30:44;;;;;;;15.70;2.88;;;;;;;;;;5061801;28;20060;-76
2024/01/22 10:33:13;;;;;;;18.83;3.45;;;;;;;;;;5074448;28;20394;-77
2024/01/22 10:35:40;;;;;;;24.45;4.47;;;;;;;;;;5087656;28;20028;-80
2024/01/22 10:38:10;;;;;;;11.77;2.38;;;;;;;;;;5082515;28;20034;-77
2024/01/22 10:40:36;;;;;;;;;;;;;;;;;;5079975;28;20521;-79
2024/01/22 10:43:18;;;;;;;13.73;3.10;;;;;;;;;;5090400;28;19911;-78
2024/01/22 10:45:46;;;;;;;18.45;3.15;;;;;;;;;;5081085;28;20024;-80
2024/01/22 10:48:13;;;;;;;19.85;5.25;;;;;;;;;;5080728;28;20557;-76
2024/01/22 10:50:41;;;;;;;52.15;14.18;;;;;;;;;;5072654;28;20129;-77
2024/01/22 10:53:10;;;;;;;20.42;4.10;;;;;;;;;;5072514;28;20487;-77
2024/01/22 10:55:38;;;;;;;19.70;4.03;;;;;;;;;;5073724;28;20056;-76
2024/01/22 10:58:08;;;;;;;20.65;4.10;;;;;;;;;;5072356;28;20063;-75
2024/01/22 11:00:40;;;;;;;;;;;;;;;;;;5072791;28;20035;-77
2024/01/22 11:03:07;;;;;;;21.77;4.57;;;;;;;;;;5071619;28;19904;-78
2024/01/22 11:05:33;;;;;;;17.73;3.55;;;;;;;;;;5072547;28;20028;-77
2024/01/22 11:07:59;;;;;;;24.65;5.30;;;;;;;;;;5073439;28;20391;-78
2024/01/22 11:10:25;;;;;;;25.17;4.70;;;;;;;;;;5074167;28;20021;-77
2024/01/22 11:12:54;;;;;;;20.77;3.65;;;;;;;;;;5072341;28;20440;-79
2024/01/22 11:15:20;;;;;;;20.67;4.55;;;;;;;;;;5073652;28;20492;-78
2024/01/22 11:17:47;;;;;;;24.17;4.30;;;;;;;;;;5072201;28;20098;-77
2024/01/22 11:20:14;;;;;;;21.83;3.80;;;;;;;;;;5072004;28;20070;-77
2024/01/22 11:22:40;;;;;;;28.25;5.50;;;;;;;;;;5073257;28;20048;-78
2024/01/22 11:25:12;;;;;;;32.38;5.00;;;;;;;;;;5071735;28;20029;-77
2024/01/22 11:27:42;;;;;;;28.65;5.95;;;;;;;;;;5072120;28;20638;-77
2024/01/22 11:30:21;;;;;;;27.38;5.22;;;;;;;;;;5071786;28;20021;-77
2024/01/22 11:32:47;;;;;;;32.95;5.68;;;;;;;;;;5073287;28;20029;-79
2024/01/22 11:35:13;;;;;;;31.73;6.57;;;;;;;;;;5073120;28;20044;-78
2024/01/22 11:37:40;;;;;;;29.23;6.13;;;;;;;;;;5072985;28;20052;-80
2024/01/22 11:40:07;;;;;;;20.92;4.45;;;;;;;;;;5071763;28;20035;-79
2024/01/22 11:42:33;;;;;;;28.70;6.03;;;;;;;;;;5071829;28;20027;-78
2024/01/22 11:45:13;;;;;;;22.80;4.47;;;;;;;;;;5073007;28;20031;-78
2024/01/22 11:47:40;;;;;;;28.00;6.55;;;;;;;;;;5074325;28;20040;-78
2024/01/22 11:50:07;;;;;;;26.67;6.40;;;;;;;;;;5073300;28;20123;-77
2024/01/22 11:52:34;;;;;;;24.67;5.55;;;;;;;;;;5073500;28;20024;-77
2024/01/22 11:55:02;;;;;;;21.15;4.32;;;;;;;;;;5071510;28;20025;-77
2024/01/22 11:57:29;;;;;;;28.65;4.53;;;;;;;;;;5071918;28;20031;-77
2024/01/22 12:00:05;;;;;;;21.25;4.28;;;;;;;;;;5073149;28;20074;-79
2024/01/22 12:02:35;;;;;;;24.30;5.18;;;;;;;;;;5071131;28;20048;-76
2024/01/22 12:05:01;;;;;;;22.10;4.63;;;;;;;;;;5072374;28;20137;-78
2024/01/22 12:07:53;;;;;;;33.83;5.60;;;;;;;;;;5072596;28;20448;-75
2024/01/22 12:10:23;;;;;;;30.00;6.22;;;;;;;;;;5070022;28;20036;-77
2024/01/22 12:12:53;;;;;;;20.55;4.10;;;;;;;;;;5072644;28;20020;-77
2024/01/22 12:15:19;;;;;;;;;;;;;;;;;;5071573;28;20040;-79
2024/01/22 12:17:45;;;;;;;24.85;4.32;;;;;;;;;;5071076;28;19908;-78
2024/01/22 12:20:12;;;;;;;31.42;6.30;;;;;;;;;;5070998;28;20028;-77
2024/01/22 12:22:38;;;;;;;25.80;5.13;;;;;;;;;;5071355;28;20361;-76
2024/01/22 12:25:07;;;;;;;25.88;5.30;;;;;;;;;;5072255;28;20025;-77
2024/01/22 12:27:33;;;;;;;24.48;6.03;;;;;;;;;;5071285;28;20035;-78
2024/01/22 12:30:00;;;;;;;38.03;6.53;;;;;;;;;;5071972;28;20358;-79
2024/01/22 12:32:26;;;;;;;31.55;5.80;;;;;;;;;;5072450;28;20115;-78
2024/01/22 12:34:56;;;;;;;27.50;6.40;;;;;;;;;;5071332;28;20472;-76
2024/01/22 12:37:26;;;;;;;27.02;5.90;;;;;;;;;;5072666;28;20086;-76
2024/01/22 12:40:24;;;;;;;26.27;5.13;;;;;;;;;;5071442;28;20033;-77
2024/01/22 12:42:51;;;;;;;33.65;7.18;;;;;;;;;;5059364;28;20476;-78
2024/01/22 12:45:22;;;;;;;35.15;7.03;;;;;;;;;;5071352;28;20029;-76
2024/01/22 12:47:48;;;;;;;;;;;;;;;;;;5071599;28;20031;-77
2024/01/22 12:50:15;;;;;;;26.20;6.07;;;;;;;;;;5070425;28;19912;-79
2024/01/22 12:52:41;;;;;;;25.77;5.45;;;;;;;;;;5072242;28;20053;-77
2024/01/22 12:55:08;;;;;;;38.22;9.05;;;;;;;;;;5071570;28;20412;-78
2024/01/22 12:57:34;;;;;;;25.55;6.03;;;;;;;;;;5070746;28;20025;-77
2024/01/22 13:00:00;;;;;;;40.35;8.63;;;;;;;;;;5071912;28;20024;-77
2024/01/22 13:02:26;;;;;;;40.85;7.60;;;;;;;;;;5070584;28;20059;-78
2024/01/22 13:04:52;;;;;;;34.80;8.27;;;;;;;;;;5070653;28;20124;-76
2024/01/22 13:07:19;;;;;;;37.67;9.20;;;;;;;;;;5070517;28;20056;-78
2024/01/22 13:09:45;;;;;;;35.95;7.65;;;;;;;;;;5072023;28;20028;-76
2024/01/22 13:12:11;;;;;;;32.70;5.80;;;;;;;;;;5070546;28;20020;-76
2024/01/22 13:14:37;;;;;;;29.58;7.03;;;;;;;;;;5070668;28;20048;-77
2024/01/22 13:17:04;;;;;;;41.35;8.40;;;;;;;;;;5071577;28;20070;-77
2024/01/22 13:19:31;;;;;;;37.67;9.02;;;;;;;;;;5070541;28;20455;-77
2024/01/22 13:21:58;;;;;;;34.65;5.95;;;;;;;;;;5070244;28;20116;-77
2024/01/22 13:24:24;;;;;;;32.17;6.40;;;;;;;;;;5074130;28;20106;-77
2024/01/22 13:26:50;;;;;;;33.78;6.55;;;;;;;;;;5074255;28;20025;-78
2024/01/22 13:29:17;;;;;;;30.08;6.25;;;;;;;;;;5075042;28;20028;-76
2024/01/22 13:31:42;;;;;;;30.35;7.70;;;;;;;;;;5073950;28;20024;-77
2024/01/22 13:34:09;;;;;;;29.27;5.80;;;;;;;;;;5075096;28;20066;-76
2024/01/22 13:36:35;;;;;;;30.73;6.30;;;;;;;;;;5073995;28;20430;-77
2024/01/22 13:39:01;;;;;;;28.38;6.35;;;;;;;;;;5075419;28;20033;-77
2024/01/22 13:41:29;;;;;;;29.88;7.72;;;;;;;;;;5075387;28;20028;-76
2024/01/22 13:43:55;;;;;;;19.65;5.15;;;;;;;;;;5075661;28;20020;-77
2024/01/22 13:46:24;;;;;;;23.17;5.35;;;;;;;;;;5075034;28;20480;-76
2024/01/22 13:48:51;;;;;;;22.13;5.32;;;;;;;;;;5073973;28;20342;-76
2024/01/22 13:51:17;;;;;;;32.95;5.47;;;;;;;;;;5074984;28;20032;-77
2024/01/22 13:53:46;;;;;;;27.10;5.70;;;;;;;;;;5073899;28;20024;-76
2024/01/22 13:56:13;;;;;;;24.02;4.95;;;;;;;;;;5074978;28;20028;-77
2024/01/22 13:58:39;;;;;;;27.77;5.50;;;;;;;;;;5073895;28;20025;-77
2024/01/22 14:01:08;;;;;;;28.42;5.75;;;;;;;;;;5074530;28;20441;-76
2024/01/22 14:03:34;;;;;;;21.55;4.32;;;;;;;;;;5075264;28;20071;-76
2024/01/22 14:06:00;;;;;;;20.52;4.78;;;;;;;;;;5074720;28;20116;-77
2024/01/22 14:08:26;;;;;;;25.50;6.20;;;;;;;;;;5074912;28;20048;-76
2024/01/22 14:10:52;;;;;;;24.50;5.15;;;;;;;;;;5073524;28;20081;-76
2024/01/22 14:13:18;;;;;;;29.25;5.68;;;;;;;;;;5074648;28;20028;-75
2024/01/22 14:15:44;;;;;;;31.38;5.50;;;;;;;;;;5074689;28;20052;-75
2024/01/22 14:18:10;;;;;;;27.65;5.90;;;;;;;;;;5074476;28;20047;-77
2024/01/22 14:20:36;;;;;;;22.15;4.43;;;;;;;;;;5073338;28;20445;-77
2024/01/22 14:23:08;;;;;;;29.67;6.82;;;;;;;;;;5074435;28;20025;-76
2024/01/22 14:25:38;;;;;;;16.83;3.72;;;;;;;;;;5073226;28;20496;-77
2024/01/22 14:28:05;;;;;;;26.70;5.53;;;;;;;;;;5074654;28;20024;-76
2024/01/22 14:30:31;;;;;;;28.08;6.15;;;;;;;;;;5074211;28;20031;-75
2024/01/22 14:32:57;;;;;;;24.30;5.45;;;;;;;;;;5074371;28;20457;-77
2024/01/22 14:35:25;;;;;;;27.40;5.93;;;;;;;;;;5072570;28;20195;-76